This is the latest recevied weather packets stored in our database for station/object FW0727. If no packets are shown the sender has not sent any weather packets the latest 1 day(s).
| Time | Temp. | Humidity | Pressure | Rain* | Wind** | Luminosity | Snow |
|---|---|---|---|---|---|---|---|
| 1778100029 | 15.56° C | 41% | 1014.6 hPa | - | - | - | - |
| 1778097278 | 16.67° C | 40% | 1014.3 hPa | - | - | - | - |
| 1778096937 | 16.67° C | 39% | 1014.3 hPa | - | - | - | - |
| 1778096592 | 16.67° C | 39% | 1014.3 hPa | - | - | - | - |
| 1778096247 | 16.67° C | 39% | 1014.3 hPa | - | - | - | - |
| 1778095558 | 16.67° C | 39% | 1014.2 hPa | - | - | - | - |
| 1778095205 | 17.22° C | 39% | 1014.2 hPa | - | - | - | - |
| 1778093496 | 17.78° C | 38% | 1013.8 hPa | - | - | - | - |
| 1778092823 | 18.33° C | 38% | 1013.7 hPa | - | - | - | - |
| 1778092470 | 18.33° C | 37% | 1013.6 hPa | - | - | - | - |
| 1778091436 | 18.89° C | 37% | 1013.4 hPa | - | - | - | - |
| 1778089712 | 20° C | 35% | 1012.7 hPa | - | - | - | - |
| 1778088013 | 20.56° C | 33% | 1012.4 hPa | - | - | - | - |
| 1778087660 | 21.11° C | 33% | 1012.4 hPa | - | - | - | - |
| 1778086282 | 21.67° C | 31% | 1012.2 hPa | - | - | - | - |
| 1778082488 | 23.89° C | 26% | 1011.9 hPa | - | - | - | - |
| 1778081797 | 24.44° C | 26% | 1011.9 hPa | - | - | - | - |
| 1778079385 | 24.44° C | 25% | 1012.2 hPa | - | - | - | - |
| 1778078365 | 24.44° C | 26% | 1012.3 hPa | - | - | - | - |
| 1778078020 | 24.44° C | 26% | 1012.3 hPa | - | - | - | - |
| 1778077675 | 24.44° C | 27% | 1012.2 hPa | - | - | - | - |
| 1778076977 | 24.44° C | 25% | 1012.2 hPa | - | - | - | - |
| 1778075589 | 24.44° C | 26% | 1012.4 hPa | - | - | - | - |
| 1778074900 | 24.44° C | 27% | 1012.4 hPa | - | - | - | - |
| 1778074546 | 24.44° C | 27% | 1012.4 hPa | - | - | - | - |
* Rain since midnight (hover to see other rain measurements)
** Current wind speed in m/s (hover to see current wind gust speed)